Time;durP1;ratioP1;P1;durP2;ratioP2;P2;SDS_P1;SDS_P2;PMS_P1;PMS_P2;Temp;Humidity;BMP_temperature;BMP_pressure;BME280_temperature;BME280_humidity;BME280_pressure;Samples;Min_cycle;Max_cycle;Signal;HPM_P1;HPM_P2
2022/06/20 00:01:34;;;;;;;5.00;1.33;;;13.70;99.90;;;;;;5057475;28;20049;-71
2022/06/20 00:04:00;;;;;;;5.38;1.38;;;13.60;99.90;;;;;;5047039;28;20041;-71
2022/06/20 00:06:26;;;;;;;5.40;1.40;;;13.70;99.90;;;;;;5036536;28;20044;-71
2022/06/20 00:08:52;;;;;;;6.82;1.45;;;13.60;99.90;;;;;;5054632;28;20055;-71
2022/06/20 00:11:21;;;;;;;3.15;1.35;;;13.60;99.90;;;;;;5054493;28;20059;-71
2022/06/20 00:13:51;;;;;;;6.10;1.10;;;13.70;99.90;;;;;;5054029;28;20048;-71
2022/06/20 00:16:19;;;;;;;2.22;1.27;;;13.70;99.90;;;;;;5057760;28;20076;-70
2022/06/20 00:18:46;;;;;;;2.83;1.23;;;13.70;99.90;;;;;;5032341;28;20122;-71
2022/06/20 00:21:14;;;;;;;4.45;1.50;;;13.80;99.90;;;;;;5059300;28;20056;-71
2022/06/20 00:23:40;;;;;;;6.07;1.13;;;13.70;99.90;;;;;;5077796;28;20136;-71
2022/06/20 00:26:06;;;;;;;3.38;1.33;;;13.70;99.90;;;;;;5040369;28;20488;-72
2022/06/20 00:28:32;;;;;;;5.80;1.58;;;13.70;99.90;;;;;;5057981;28;20041;-71
2022/06/20 00:30:58;;;;;;;3.97;1.25;;;13.70;99.90;;;;;;5039874;28;20052;-70
2022/06/20 00:33:24;;;;;;;5.30;1.30;;;13.70;99.90;;;;;;5057816;28;20059;-71
2022/06/20 00:35:50;;;;;;;3.88;1.20;;;13.70;99.90;;;;;;5040629;28;20369;-71
2022/06/20 00:38:18;;;;;;;5.35;1.40;;;13.60;99.90;;;;;;5048586;28;20049;-71
2022/06/20 00:40:48;;;;;;;5.30;1.80;;;13.80;99.90;;;;;;5040445;28;20049;-71
2022/06/20 00:43:37;;;;;;;5.95;1.80;;;13.80;99.90;;;;;;5040162;28;20056;-71
2022/06/20 00:46:08;;;;;;;4.47;1.20;;;13.80;99.90;;;;;;5040238;28;20044;-71
2022/06/20 00:48:46;;;;;;;3.35;1.30;;;13.80;99.90;;;;;;5040290;28;20084;-71
2022/06/20 00:51:28;;;;;;;5.75;1.58;;;13.80;99.90;;;;;;5040000;28;20458;-72
2022/06/20 00:54:00;;;;;;;3.30;1.65;;;13.80;99.90;;;;;;5056211;28;20052;-72
2022/06/20 00:56:45;;;;;;;5.03;2.07;;;13.80;99.90;;;;;;5084624;28;20400;-71
2022/06/20 00:59:16;;;;;;;4.25;1.30;;;13.80;99.90;;;;;;5063412;28;20293;-71
2022/06/20 01:01:42;;;;;;;11.35;3.15;;;13.70;99.90;;;;;;5079928;28;20059;-71
2022/06/20 01:04:14;;;;;;;7.25;2.58;;;13.70;99.90;;;;;;5097876;28;20039;-71
2022/06/20 01:06:49;;;;;;;4.18;1.52;;;13.70;99.90;;;;;;5059419;28;20085;-71
2022/06/20 01:09:18;;;;;;;4.55;2.00;;;13.70;99.90;;;;;;5043454;28;20044;-72
2022/06/20 01:11:50;;;;;;;8.75;1.60;;;13.60;99.90;;;;;;5097562;28;20504;-72
2022/06/20 01:14:22;;;;;;;6.30;1.48;;;13.60;99.90;;;;;;5063864;28;20044;-72
2022/06/20 01:16:50;;;;;;;5.28;1.33;;;13.50;99.90;;;;;;5077479;28;20048;-71
2022/06/20 01:19:42;;;;;;;3.67;1.50;;;13.50;99.90;;;;;;5059859;28;20048;-71
2022/06/20 01:22:21;;;;;;;3.33;1.40;;;13.40;99.90;;;;;;5074325;28;20052;-71
2022/06/20 01:25:10;;;;;;;5.13;1.60;;;13.30;99.90;;;;;;5097190;28;20509;-71
2022/06/20 01:27:40;;;;;;;3.38;1.20;;;13.20;99.90;;;;;;5097093;28;20096;-70
2022/06/20 01:30:06;;;;;;;2.20;1.20;;;13.10;99.90;;;;;;5097248;28;20040;-71
2022/06/20 01:32:32;;;;;;;4.60;1.40;;;13.00;99.90;;;;;;5097162;28;20044;-71
2022/06/20 01:35:01;;;;;;;8.20;2.85;;;13.10;99.90;;;;;;5097123;28;20047;-71
2022/06/20 01:37:29;;;;;;;3.58;1.52;;;13.00;99.90;;;;;;5078047;28;20491;-71
2022/06/20 01:39:59;;;;;;;6.13;1.60;;;12.90;99.90;;;;;;5096858;28;20189;-71
2022/06/20 01:42:27;;;;;;;5.82;2.00;;;12.90;99.90;;;;;;5059872;28;20041;-71
2022/06/20 01:45:00;;;;;;;9.05;1.77;;;12.90;99.90;;;;;;5075901;28;20529;-71
2022/06/20 01:47:25;;;;;;;3.50;1.38;;;12.90;99.90;;;;;;5076639;28;20052;-71
2022/06/20 01:49:55;;;;;;;6.80;1.75;;;12.80;99.90;;;;;;5069325;28;20044;-71
2022/06/20 01:52:31;;;;;;;9.02;2.15;;;12.70;99.90;;;;;;5058829;28;20499;-71
2022/06/20 01:55:01;;;;;;;7.75;1.70;;;12.70;99.90;;;;;;5071522;28;20119;-71
2022/06/20 01:57:30;;;;;;;9.07;2.22;;;12.70;99.90;;;;;;5076370;28;20061;-70
2022/06/20 02:00:07;;;;;;;3.90;1.40;;;12.70;99.90;;;;;;5058605;28;20495;-72
2022/06/20 02:02:39;;;;;;;5.88;1.45;;;12.60;99.90;;;;;;5067884;28;20410;-70
2022/06/20 02:05:09;;;;;;;4.22;1.80;;;12.60;99.90;;;;;;5061002;28;20448;-71
2022/06/20 02:07:35;;;;;;;5.07;2.20;;;12.60;99.90;;;;;;5058903;28;20482;-71
2022/06/20 02:10:04;;;;;;;4.78;1.48;;;12.60;99.90;;;;;;5096279;28;20044;-71
2022/06/20 02:12:32;;;;;;;3.35;1.90;;;12.50;99.90;;;;;;5096468;28;20040;-71
2022/06/20 02:15:00;;;;;;;3.22;1.60;;;12.50;99.90;;;;;;5095972;28;20044;-71
2022/06/20 02:17:34;;;;;;;4.57;1.60;;;12.50;99.90;;;;;;5095964;28;20044;-71
2022/06/20 02:20:05;;;;;;;6.10;2.50;;;12.40;99.90;;;;;;5075830;28;20047;-71
2022/06/20 02:22:33;;;;;;;4.57;1.88;;;12.30;99.90;;;;;;5071444;28;20044;-70
2022/06/20 02:25:05;;;;;;;3.70;1.95;;;12.30;99.90;;;;;;5058126;28;20094;-71
2022/06/20 02:27:37;;;;;;;3.70;1.40;;;12.20;99.90;;;;;;5075533;28;20091;-71
2022/06/20 02:30:04;;;;;;;4.78;1.80;;;12.10;99.90;;;;;;5075411;28;20526;-71
2022/06/20 02:32:35;;;;;;;6.88;1.55;;;12.00;99.90;;;;;;5072643;28;20063;-71
2022/06/20 02:35:03;;;;;;;5.45;1.55;;;12.00;99.90;;;;;;5067639;28;20040;-70
2022/06/20 02:37:29;;;;;;;4.55;2.05;;;11.90;99.90;;;;;;5075113;28;20111;-71
2022/06/20 02:40:01;;;;;;;3.45;1.35;;;11.90;99.90;;;;;;5067259;28;20107;-70
2022/06/20 02:42:34;;;;;;;4.30;1.73;;;11.80;99.90;;;;;;5096026;28;20042;-71
2022/06/20 02:45:03;;;;;;;6.45;2.35;;;11.70;99.90;;;;;;5095678;28;20073;-71
2022/06/20 02:47:30;;;;;;;6.53;1.67;;;11.70;99.90;;;;;;5060006;28;20123;-71
2022/06/20 02:49:59;;;;;;;2.75;1.40;;;11.70;99.90;;;;;;5060329;28;20059;-71
2022/06/20 02:52:31;;;;;;;4.55;1.40;;;11.80;99.90;;;;;;5075032;28;20059;-71
2022/06/20 02:54:58;;;;;;;6.53;1.35;;;11.80;99.90;;;;;;5074829;28;20496;-71
2022/06/20 02:57:34;;;;;;;2.47;1.40;;;11.90;99.90;;;;;;5057404;28;20131;-71
2022/06/20 03:00:02;;;;;;;4.55;2.00;;;11.80;99.90;;;;;;5057699;28;20411;-71
2022/06/20 03:02:31;;;;;;;2.85;1.80;;;11.80;99.90;;;;;;5075391;28;20036;-71
2022/06/20 03:04:57;;;;;;;6.47;2.08;;;11.90;99.90;;;;;;5055774;28;20064;-70
2022/06/20 03:07:27;;;;;;;7.43;1.60;;;11.80;99.90;;;;;;5057677;28;20545;-70
2022/06/20 03:10:00;;;;;;;4.70;1.30;;;11.70;99.90;;;;;;5057474;28;20099;-71
2022/06/20 03:12:25;;;;;;;3.50;1.57;;;11.60;99.90;;;;;;5057620;28;20058;-71
2022/06/20 03:14:55;;;;;;;5.10;1.33;;;11.60;99.90;;;;;;5073953;28;20299;-70
2022/06/20 03:17:23;;;;;;;7.80;2.05;;;11.60;99.90;;;;;;5067146;28;20118;-71
2022/06/20 03:19:55;;;;;;;2.90;1.60;;;11.60;99.90;;;;;;5057181;28;20051;-70
2022/06/20 03:22:27;;;;;;;4.75;1.70;;;11.40;99.90;;;;;;5066440;28;20044;-71
2022/06/20 03:24:54;;;;;;;4.80;1.30;;;11.40;99.90;;;;;;5073874;28;20048;-71
2022/06/20 03:27:27;;;;;;;2.38;1.30;;;11.40;99.90;;;;;;5056879;28;20127;-71
2022/06/20 03:29:57;;;;;;;3.15;1.38;;;11.40;99.90;;;;;;5057040;28;20048;-71
2022/06/20 03:32:24;;;;;;;2.45;1.20;;;11.30;99.90;;;;;;5071648;28;20048;-71
2022/06/20 03:34:50;;;;;;;4.25;1.50;;;11.30;99.90;;;;;;5058163;28;20045;-71
2022/06/20 03:37:16;;;;;;;5.18;1.92;;;11.20;99.90;;;;;;5071377;28;20056;-71
2022/06/20 03:39:44;;;;;;;4.68;1.67;;;11.20;99.90;;;;;;5064577;28;20044;-72
2022/06/20 03:42:09;;;;;;;4.57;1.58;;;11.20;99.90;;;;;;5071180;28;20372;-71
2022/06/20 03:44:39;;;;;;;2.80;1.50;;;11.20;99.90;;;;;;5074212;28;20045;-71
2022/06/20 03:47:13;;;;;;;4.22;1.40;;;11.20;99.90;;;;;;5074730;28;20518;-70
2022/06/20 03:50:05;;;;;;;5.30;1.50;;;11.20;99.90;;;;;;5065934;28;20044;-71
2022/06/20 03:52:35;;;;;;;4.03;2.65;;;11.10;99.90;;;;;;5051265;28;20373;-71
2022/06/20 03:55:10;;;;;;;5.13;1.58;;;11.10;99.90;;;;;;5074057;28;20052;-71
2022/06/20 03:57:48;;;;;;;5.07;1.60;;;11.10;99.90;;;;;;5078716;28;20354;-70
2022/06/20 04:00:24;;;;;;;6.60;1.80;;;11.10;99.90;;;;;;5078481;28;20114;-71
2022/06/20 04:03:05;;;;;;;3.47;1.77;;;11.10;99.90;;;;;;5060583;28;20051;-71
2022/06/20 04:05:55;;;;;;;3.58;1.30;;;11.10;99.90;;;;;;5066626;28;20044;-71
2022/06/20 04:10:57;;;;;;;2.95;1.50;;;11.10;99.90;;;;;;5079864;28;20056;-71
2022/06/20 04:11:16;;;;;;;3.95;1.77;;;11.20;99.90;;;;;;5063099;28;20056;-71
2022/06/20 04:14:09;;;;;;;3.75;1.65;;;11.20;99.90;;;;;;5078021;28;20126;-72
2022/06/20 04:16:41;;;;;;;4.53;1.73;;;11.20;99.90;;;;;;5068734;28;20127;-71
2022/06/20 04:19:17;;;;;;;4.43;1.60;;;11.30;99.90;;;;;;5097439;28;20127;-71
2022/06/20 04:21:52;;;;;;;4.05;1.33;;;11.30;99.90;;;;;;5098341;28;20173;-71
2022/06/20 04:24:30;;;;;;;3.08;1.60;;;11.30;99.90;;;;;;5062807;28;20075;-71
2022/06/20 04:27:10;;;;;;;7.13;1.88;;;11.30;99.90;;;;;;5060907;28;20110;-71
2022/06/20 04:29:43;;;;;;;3.33;1.67;;;11.40;99.90;;;;;;5068061;28;20495;-71
2022/06/20 04:32:18;;;;;;;2.97;1.60;;;11.40;99.90;;;;;;5064796;28;20044;-71
2022/06/20 04:34:49;;;;;;;4.28;1.80;;;11.50;99.90;;;;;;5077275;28;20601;-71
2022/06/20 04:37:33;;;;;;;8.30;1.80;;;11.60;99.90;;;;;;5077655;28;20032;-71
2022/06/20 04:40:17;;;;;;;4.05;1.92;;;11.80;99.90;;;;;;5060270;28;20056;-71
2022/06/20 04:42:55;;;;;;;5.90;1.90;;;11.90;99.90;;;;;;5070970;28;20045;-70
2022/06/20 04:45:27;;;;;;;5.05;1.98;;;12.10;99.90;;;;;;5060716;28;20048;-71
2022/06/20 04:47:58;;;;;;;5.75;1.70;;;12.50;99.90;;;;;;5043409;28;20048;-71
2022/06/20 04:50:27;;;;;;;3.63;1.67;;;13.00;99.90;;;;;;5077590;28;20360;-71
2022/06/20 04:52:57;;;;;;;4.15;1.65;;;13.20;99.90;;;;;;5059939;28;20044;-71
2022/06/20 04:55:24;;;;;;;7.15;2.22;;;13.40;99.90;;;;;;5075923;28;20453;-70
2022/06/20 04:57:56;;;;;;;4.75;2.17;;;13.50;99.90;;;;;;5069287;28;20071;-71
2022/06/20 05:00:27;;;;;;;6.18;3.05;;;13.60;99.90;;;;;;5077367;28;20055;-71
2022/06/20 05:02:55;;;;;;;6.88;1.85;;;13.60;99.90;;;;;;5064934;28;20041;-70
2022/06/20 05:05:27;;;;;;;5.50;1.75;;;13.50;99.90;;;;;;5077183;28;20048;-71
2022/06/20 05:07:53;;;;;;;8.68;2.53;;;13.50;99.90;;;;;;5062298;28;20060;-73
2022/06/20 05:10:22;;;;;;;5.85;2.42;;;13.60;99.90;;;;;;5071105;28;20106;-70
2022/06/20 05:12:54;;;;;;;11.40;3.00;;;13.80;99.90;;;;;;5077042;28;20080;-71
2022/06/20 05:15:41;;;;;;;4.90;1.60;;;14.90;99.90;;;;;;5059552;28;20052;-71
2022/06/20 05:18:34;;;;;;;6.95;2.88;;;16.90;99.90;;;;;;5072061;28;20487;-71
2022/06/20 05:21:12;;;;;;;11.40;1.90;;;18.40;99.90;;;;;;5096935;28;20456;-71
2022/06/20 05:23:42;;;;;;;6.32;1.83;;;19.50;99.90;;;;;;5067552;28;20056;-71
2022/06/20 05:26:13;;;;;;;6.13;2.20;;;20.50;99.90;;;;;;5059331;28;20506;-71
2022/06/20 05:28:41;;;;;;;4.55;1.70;;;21.20;99.90;;;;;;5069014;28;20056;-72
2022/06/20 05:31:07;;;;;;;12.82;1.73;;;22.10;99.90;;;;;;5076682;28;20036;-71
2022/06/20 05:33:53;;;;;;;5.50;1.73;;;22.40;99.90;;;;;;5069550;28;20088;-71
2022/06/20 05:36:29;;;;;;;3.80;1.60;;;23.10;99.90;;;;;;5076767;28;20111;-72
2022/06/20 05:39:03;;;;;;;3.63;1.77;;;23.50;98.60;;;;;;5073365;28;20487;-72
2022/06/20 05:41:29;;;;;;;2.58;1.10;;;23.60;97.10;;;;;;5058955;28;20048;-72
2022/06/20 05:43:56;;;;;;;8.55;2.17;;;24.30;97.00;;;;;;5059070;28;20484;-72
2022/06/20 05:46:36;;;;;;;7.78;2.03;;;24.60;97.00;;;;;;5067955;28;20052;-72
2022/06/20 05:49:06;;;;;;;6.32;1.85;;;25.00;96.50;;;;;;5074841;28;20041;-71
2022/06/20 05:51:35;;;;;;;6.18;1.95;;;25.10;95.50;;;;;;5070319;28;20048;-72
2022/06/20 05:54:17;;;;;;;6.78;2.08;;;25.80;94.70;;;;;;5076145;28;20048;-72
2022/06/20 05:57:14;;;;;;;4.47;1.40;;;25.80;93.20;;;;;;5076172;28;20060;-71
2022/06/20 05:59:45;;;;;;;3.33;1.65;;;25.90;93.60;;;;;;5058487;28;20040;-72
2022/06/20 06:02:29;;;;;;;3.20;1.08;;;26.30;93.30;;;;;;5058303;28;20048;-71
2022/06/20 06:05:07;;;;;;;3.03;1.13;;;26.10;91.70;;;;;;5073326;28;20044;-71
2022/06/20 06:07:40;;;;;;;6.95;2.00;;;25.30;93.10;;;;;;5068164;28;20048;-72
2022/06/20 06:10:28;;;;;;;3.17;1.48;;;25.70;92.10;;;;;;5063283;28;20059;-71
2022/06/20 06:13:11;;;;;;;4.25;1.38;;;26.40;92.50;;;;;;5072083;28;20052;-71
2022/06/20 06:18:45;;;;;;;4.13;1.10;;;26.10;90.70;;;;;;5075802;28;20080;-71
2022/06/20 06:21:11;;;;;;;8.07;1.45;;;26.20;91.10;;;;;;5073611;28;20040;-72
2022/06/20 06:23:38;;;;;;;5.20;1.55;;;26.30;91.30;;;;;;5075781;28;20060;-72
2022/06/20 06:26:03;;;;;;;4.53;1.55;;;26.50;91.20;;;;;;5057681;28;20461;-71
2022/06/20 06:28:29;;;;;;;5.07;1.45;;;26.90;90.80;;;;;;5075808;28;20043;-72
2022/06/20 06:31:26;;;;;;;3.20;1.00;;;27.20;90.90;;;;;;5071430;28;20051;-72
2022/06/20 06:34:25;;;;;;;4.88;1.45;;;26.70;90.20;;;;;;5074878;28;20050;-71
2022/06/20 06:36:57;;;;;;;5.95;1.77;;;26.40;89.70;;;;;;5069337;28;20051;-72
2022/06/20 06:39:45;;;;;;;3.97;0.90;;;26.40;90.70;;;;;;5058239;28;20085;-72
2022/06/20 06:42:14;;;;;;;5.53;1.52;;;26.00;90.30;;;;;;5072938;28;20122;-72
2022/06/20 06:44:49;;;;;;;3.55;1.50;;;25.90;90.40;;;;;;5066423;28;20052;-71
2022/06/20 06:47:27;;;;;;;4.55;1.23;;;26.30;90.30;;;;;;5075375;28;20040;-71
2022/06/20 06:50:01;;;;;;;3.78;1.30;;;26.60;89.60;;;;;;5069597;28;20041;-71
2022/06/20 06:52:38;;;;;;;3.92;1.35;;;27.10;88.60;;;;;;5075056;28;20045;-71
2022/06/20 06:55:27;;;;;;;6.50;1.60;;;26.80;86.10;;;;;;5057213;28;20105;-72
2022/06/20 06:58:01;;;;;;;3.80;1.48;;;25.90;87.50;;;;;;5067793;28;20062;-72
2022/06/20 07:00:41;;;;;;;3.63;1.25;;;25.50;88.50;;;;;;5057956;28;20053;-73
2022/06/20 07:03:42;;;;;;;9.38;1.90;;;25.60;89.40;;;;;;5063866;28;20059;-72
2022/06/20 07:06:26;;;;;;;2.75;1.20;;;25.90;87.70;;;;;;5043494;28;20456;-71
2022/06/20 07:09:08;;;;;;;5.07;1.83;;;26.30;88.40;;;;;;5065272;28;20102;-71
2022/06/20 07:11:38;;;;;;;5.78;1.27;;;26.70;88.90;;;;;;5057840;28;20345;-71
2022/06/20 07:14:30;;;;;;;5.75;1.50;;;26.00;88.10;;;;;;5057108;28;20499;-72
2022/06/20 07:17:14;;;;;;;4.50;1.20;;;25.40;87.90;;;;;;5065457;28;20102;-71
2022/06/20 07:19:45;;;;;;;8.27;1.85;;;25.50;88.70;;;;;;5094824;28;20043;-71
2022/06/20 07:22:14;;;;;;;2.80;1.13;;;25.00;89.00;;;;;;5057505;28;20539;-71
2022/06/20 07:24:41;;;;;;;3.63;1.20;;;23.90;89.80;;;;;;5056905;28;20040;-71
2022/06/20 07:27:32;;;;;;;5.05;1.50;;;23.60;91.20;;;;;;5074517;28;20055;-71
2022/06/20 07:30:30;;;;;;;6.88;1.33;;;24.60;88.50;;;;;;5074464;28;20056;-72
2022/06/20 07:33:05;;;;;;;7.13;1.40;;;25.40;88.70;;;;;;5053509;28;20071;-72
2022/06/20 07:35:35;;;;;;;4.13;1.33;;;25.20;88.30;;;;;;5060500;28;20056;-71
2022/06/20 07:38:12;;;;;;;4.25;1.38;;;24.70;88.70;;;;;;5069410;28;20407;-72
2022/06/20 07:40:45;;;;;;;5.13;1.50;;;23.50;89.30;;;;;;5059596;28;20048;-72
2022/06/20 07:43:18;;;;;;;9.07;2.00;;;23.20;90.20;;;;;;5074787;28;20036;-72
2022/06/20 07:45:50;;;;;;;6.55;1.30;;;23.90;90.30;;;;;;5056816;28;20056;-72
2022/06/20 07:48:30;;;;;;;4.82;1.67;;;24.80;90.60;;;;;;5074769;28;20102;-72
2022/06/20 07:51:02;;;;;;;4.57;1.67;;;25.40;88.20;;;;;;5062214;28;20055;-71
2022/06/20 07:53:37;;;;;;;7.97;1.63;;;25.00;88.40;;;;;;5083443;28;20075;-71
2022/06/20 07:56:20;;;;;;;5.40;1.65;;;24.00;89.70;;;;;;5074356;28;20052;-71
2022/06/20 07:58:54;;;;;;;3.92;1.58;;;23.00;90.50;;;;;;5073485;28;20071;-72
2022/06/20 08:02:03;;;;;;;5.05;1.50;;;22.40;90.90;;;;;;5049671;28;20063;-72
2022/06/20 08:04:32;;;;;;;4.20;1.25;;;21.90;91.30;;;;;;5058300;28;20120;-71
2022/06/20 08:07:10;;;;;;;5.20;1.67;;;21.20;92.30;;;;;;5080528;28;20453;-71
2022/06/20 08:09:58;;;;;;;2.95;1.58;;;20.90;92.60;;;;;;5059244;28;20048;-71
2022/06/20 08:12:49;;;;;;;5.47;1.33;;;22.00;93.40;;;;;;5074306;28;20415;-71
2022/06/20 08:15:21;;;;;;;5.97;1.30;;;22.80;91.60;;;;;;5074422;28;20044;-71
2022/06/20 08:17:47;;;;;;;6.20;1.53;;;22.20;91.60;;;;;;5070781;28;20125;-72
2022/06/20 08:20:12;;;;;;;4.63;1.30;;;21.80;92.30;;;;;;5064269;28;20472;-72
2022/06/20 08:22:49;;;;;;;3.83;1.23;;;21.70;93.10;;;;;;5074157;28;20119;-71
2022/06/20 08:25:18;;;;;;;2.53;1.13;;;22.50;92.10;;;;;;5065305;28;20059;-71
2022/06/20 08:27:47;;;;;;;3.30;1.00;;;22.80;92.00;;;;;;5056326;28;20457;-71
2022/06/20 08:30:15;;;;;;;5.15;1.40;;;23.40;91.30;;;;;;5066075;28;20538;-72
2022/06/20 08:33:01;;;;;;;4.07;1.27;;;24.00;91.60;;;;;;5073703;28;20104;-71
2022/06/20 08:35:42;;;;;;;2.72;0.80;;;24.80;88.20;;;;;;5074372;28;20040;-71
2022/06/20 08:38:18;;;;;;;1.08;0.52;;;25.30;87.90;;;;;;5071656;28;20059;-71
2022/06/20 08:41:21;;;;;;;2.05;0.88;;;24.90;85.50;;;;;;5060482;28;20135;-72
2022/06/20 08:44:02;;;;;;;3.22;0.75;;;25.20;85.20;;;;;;5060702;28;20124;-72
2022/06/20 08:46:56;;;;;;;2.22;1.02;;;25.10;86.20;;;;;;5059878;28;20052;-71
2022/06/20 08:49:40;;;;;;;2.90;1.05;;;25.60;86.00;;;;;;5067056;28;20469;-71
2022/06/20 08:52:59;;;;;;;3.30;1.13;;;25.50;86.50;;;;;;5076046;28;20127;-71
2022/06/20 08:55:56;;;;;;;3.67;0.95;;;25.40;85.70;;;;;;5057955;28;20084;-72
2022/06/20 08:59:05;;;;;;;2.13;0.88;;;24.70;87.40;;;;;;5059794;28;20346;-71
2022/06/20 09:01:48;;;;;;;3.63;1.05;;;23.50;87.60;;;;;;4995967;28;20367;-71
2022/06/20 09:04:23;;;;;;;3.97;0.98;;;22.90;88.70;;;;;;4990527;28;20049;-72
2022/06/20 09:06:49;;;;;;;3.55;1.23;;;22.20;90.20;;;;;;5041804;28;20060;-71
2022/06/20 09:09:27;;;;;;;2.97;1.23;;;21.60;91.20;;;;;;5070190;28;20361;-72
2022/06/20 09:12:11;;;;;;;4.03;1.20;;;20.90;92.20;;;;;;5077175;28;20044;-73
2022/06/20 09:14:48;;;;;;;7.00;1.10;;;20.90;92.40;;;;;;5077056;28;20076;-71
2022/06/20 09:17:33;;;;;;;3.10;1.17;;;21.60;92.80;;;;;;5059763;28;20061;-71
2022/06/20 09:20:29;;;;;;;4.47;1.40;;;22.60;91.90;;;;;;5059313;28;20080;-71
2022/06/20 09:23:04;;;;;;;3.17;1.10;;;22.90;90.50;;;;;;5071759;28;20342;-71
2022/06/20 09:25:44;;;;;;;6.93;1.48;;;22.60;90.50;;;;;;5076734;28;20119;-71
2022/06/20 09:28:45;;;;;;;2.72;1.00;;;22.30;90.60;;;;;;5077129;28;20121;-72
2022/06/20 09:31:26;;;;;;;3.30;1.23;;;22.00;91.40;;;;;;5067626;28;20059;-71
2022/06/20 09:34:06;;;;;;;4.13;1.13;;;21.70;90.80;;;;;;5062456;28;20060;-71
2022/06/20 09:36:47;;;;;;;6.20;1.27;;;21.60;91.00;;;;;;5067259;28;20051;-72
2022/06/20 09:39:33;;;;;;;3.15;1.25;;;21.80;91.20;;;;;;5076683;28;20105;-71
2022/06/20 09:42:09;;;;;;;2.25;1.00;;;21.80;91.30;;;;;;5071873;28;20358;-71
2022/06/20 09:44:55;;;;;;;3.38;1.00;;;21.70;91.10;;;;;;5076446;28;20040;-71
2022/06/20 09:47:29;;;;;;;2.22;0.93;;;21.20;90.20;;;;;;5058849;28;20522;-73
2022/06/20 09:50:16;;;;;;;3.30;0.98;;;21.00;90.40;;;;;;5069221;28;20070;-72
2022/06/20 09:52:48;;;;;;;2.50;0.70;;;21.30;91.20;;;;;;5064357;28;20059;-71
2022/06/20 09:55:32;;;;;;;2.40;0.88;;;21.20;90.20;;;;;;5042232;28;20052;-71
2022/06/20 09:58:07;;;;;;;3.40;0.90;;;21.20;90.50;;;;;;5048722;28;20048;-71
2022/06/20 10:01:03;;;;;;;3.35;1.15;;;20.90;90.40;;;;;;5038401;28;20084;-71
2022/06/20 10:03:37;;;;;;;3.33;1.05;;;20.70;90.80;;;;;;5054559;28;20194;-71
2022/06/20 10:06:33;;;;;;;6.38;1.70;;;20.60;91.80;;;;;;5053089;28;20363;-71
2022/06/20 10:09:40;;;;;;;3.53;1.38;;;20.40;92.40;;;;;;5046982;28;20053;-71
2022/06/20 10:12:23;;;;;;;3.05;1.33;;;20.20;92.80;;;;;;5038357;28;20045;-71
2022/06/20 10:15:02;;;;;;;5.43;1.13;;;20.00;92.90;;;;;;5055788;28;20059;-71
2022/06/20 10:17:39;;;;;;;4.40;1.08;;;19.70;92.60;;;;;;5038337;28;20055;-71
2022/06/20 10:20:14;;;;;;;3.20;1.30;;;19.80;92.50;;;;;;5046440;28;20132;-71
2022/06/20 10:23:04;;;;;;;3.35;0.90;;;20.10;93.00;;;;;;5038400;28;20056;-72
2022/06/20 10:25:42;;;;;;;6.10;1.38;;;20.20;93.50;;;;;;5048570;28;20048;-71
2022/06/20 10:28:10;;;;;;;3.20;0.85;;;20.40;93.00;;;;;;5038477;28;20419;-71
2022/06/20 10:30:59;;;;;;;3.30;1.08;;;20.50;91.50;;;;;;5051137;28;20365;-71
2022/06/20 10:33:47;;;;;;;1.98;0.95;;;20.70;91.80;;;;;;5037901;28;20124;-71
2022/06/20 10:36:53;;;;;;;3.00;0.98;;;20.80;91.70;;;;;;5043332;28;20053;-72
2022/06/20 10:39:54;;;;;;;4.18;1.30;;;20.60;91.70;;;;;;5055645;28;20056;-72
2022/06/20 10:42:22;;;;;;;2.78;1.10;;;20.70;92.40;;;;;;5054355;28;20064;-71
2022/06/20 10:45:06;;;;;;;2.65;1.00;;;20.80;93.60;;;;;;5050976;28;20123;-71
2022/06/20 10:47:52;;;;;;;;;;;20.80;92.30;;;;;;5049519;28;20045;-71
2022/06/20 10:50:27;;;;;;;1.98;1.10;;;20.70;92.00;;;;;;5051610;28;19967;-70
2022/06/20 10:53:05;;;;;;;2.97;1.23;;;20.90;92.40;;;;;;5047826;28;20053;-71
2022/06/20 10:56:02;;;;;;;1.70;0.82;;;21.10;92.00;;;;;;5042760;28;20079;-70
2022/06/20 10:58:59;;;;;;;5.15;1.35;;;21.10;91.80;;;;;;5056400;28;20128;-72
2022/06/20 11:01:46;;;;;;;6.57;1.10;;;20.90;90.80;;;;;;5074582;28;20131;-71
2022/06/20 11:04:38;;;;;;;2.70;1.20;;;20.60;91.20;;;;;;5062226;28;20044;-71
2022/06/20 11:07:23;;;;;;;2.92;1.02;;;20.40;91.70;;;;;;5053617;28;20056;-70
2022/06/20 11:10:10;;;;;;;2.92;1.17;;;20.50;91.90;;;;;;5053704;28;20048;-72
2022/06/20 11:12:46;;;;;;;4.93;1.75;;;20.70;91.70;;;;;;5054365;28;20053;-71
2022/06/20 11:15:15;;;;;;;4.30;1.08;;;21.00;91.20;;;;;;5053672;28;20128;-71
2022/06/20 11:17:52;;;;;;;3.95;0.82;;;21.10;91.50;;;;;;5054008;28;20109;-70
2022/06/20 11:20:40;;;;;;;8.30;1.35;;;21.10;91.00;;;;;;5070768;28;20100;-71
2022/06/20 11:23:26;;;;;;;3.40;1.35;;;21.30;90.90;;;;;;5074193;28;20056;-71
2022/06/20 11:26:14;;;;;;;6.88;1.40;;;21.50;90.40;;;;;;5055995;28;20049;-71
2022/06/20 11:28:58;;;;;;;6.05;1.45;;;21.80;90.80;;;;;;5053476;28;20053;-71
2022/06/20 11:32:05;;;;;;;3.38;1.15;;;21.80;90.80;;;;;;5054017;28;20045;-71
2022/06/20 11:34:59;;;;;;;2.20;1.00;;;21.80;90.60;;;;;;5054123;28;20145;-72
2022/06/20 11:37:40;;;;;;;;;;;22.30;90.50;;;;;;5055041;28;20045;-71
2022/06/20 11:40:33;;;;;;;1.95;0.93;;;21.90;91.10;;;;;;5053594;28;19956;-71
2022/06/20 11:43:14;;;;;;;2.90;1.07;;;21.80;90.40;;;;;;5054995;28;20044;-71
2022/06/20 11:45:45;;;;;;;3.50;1.10;;;21.70;91.10;;;;;;5060644;28;20292;-71
2022/06/20 11:48:33;;;;;;;3.30;1.25;;;21.80;90.80;;;;;;5073326;28;20048;-71
2022/06/20 11:51:22;;;;;;;6.72;1.50;;;21.50;90.80;;;;;;5072825;28;20063;-71
2022/06/20 11:54:19;;;;;;;3.38;1.30;;;21.60;90.80;;;;;;5073951;28;20064;-71
2022/06/20 11:56:48;;;;;;;4.65;1.33;;;21.60;90.80;;;;;;5084063;28;20048;-72
2022/06/20 11:59:38;;;;;;;3.22;1.30;;;21.80;91.20;;;;;;5064343;28;20052;-71
2022/06/20 12:02:34;;;;;;;3.05;1.25;;;21.80;91.10;;;;;;5057401;28;20064;-71
2022/06/20 12:05:18;;;;;;;2.90;1.30;;;21.60;90.60;;;;;;5072071;28;20488;-72
2022/06/20 12:07:49;;;;;;;1.73;1.00;;;21.50;91.00;;;;;;5057711;28;20135;-71
2022/06/20 12:10:24;;;;;;;5.88;1.33;;;21.40;90.50;;;;;;5094832;28;20445;-72
2022/06/20 12:13:06;;;;;;;6.57;1.15;;;21.40;90.60;;;;;;5064399;28;20357;-71
2022/06/20 12:15:45;;;;;;;4.88;1.05;;;21.50;91.30;;;;;;5060486;28;20040;-71
2022/06/20 12:18:33;;;;;;;2.75;1.02;;;21.40;90.80;;;;;;5066821;28;20040;-72
2022/06/20 12:24:00;;;;;;;6.72;1.88;;;21.10;91.50;;;;;;5080644;28;20048;-71
2022/06/20 12:26:39;;;;;;;4.22;1.38;;;20.90;92.00;;;;;;5098302;28;20113;-71
2022/06/20 12:29:14;;;;;;;2.90;1.25;;;20.80;92.20;;;;;;5063529;28;20048;-71
2022/06/20 12:31:45;;;;;;;4.70;1.40;;;20.70;92.40;;;;;;5060414;28;20529;-71
2022/06/20 12:34:31;;;;;;;3.42;1.30;;;20.40;92.30;;;;;;5077941;28;20356;-71
2022/06/20 12:37:05;;;;;;;7.43;1.27;;;20.00;92.30;;;;;;5072517;28;20041;-71
2022/06/20 12:39:34;;;;;;;3.58;1.15;;;20.10;92.80;;;;;;5077814;28;20055;-71
2022/06/20 12:42:05;;;;;;;3.60;1.30;;;20.50;91.30;;;;;;5077677;28;20047;-71
2022/06/20 12:44:51;;;;;;;3.30;1.17;;;20.80;91.30;;;;;;5060380;28;20080;-71
2022/06/20 12:47:35;;;;;;;5.10;1.63;;;21.00;90.40;;;;;;5066304;28;20144;-71
2022/06/20 12:50:14;;;;;;;2.42;0.85;;;21.30;90.20;;;;;;5075749;28;20457;-71
2022/06/20 12:52:56;;;;;;;2.65;1.00;;;21.70;90.80;;;;;;5059811;28;20044;-71
2022/06/20 12:55:41;;;;;;;1.75;0.90;;;21.80;90.40;;;;;;5066370;28;20051;-72
2022/06/20 12:58:34;;;;;;;3.88;1.20;;;21.70;90.10;;;;;;5097514;28;20052;-71
2022/06/20 13:01:31;;;;;;;2.47;0.80;;;21.50;90.70;;;;;;5097711;28;20044;-71
2022/06/20 13:04:09;;;;;;;2.70;1.00;;;21.00;90.50;;;;;;5096702;28;20044;-70
2022/06/20 13:06:56;;;;;;;5.57;1.42;;;20.90;90.80;;;;;;5091841;28;20105;-71
2022/06/20 13:09:42;;;;;;;1.88;1.05;;;20.60;91.60;;;;;;5071203;28;20091;-72
2022/06/20 13:12:27;;;;;;;2.45;1.10;;;20.40;91.20;;;;;;5059380;28;20054;-71
2022/06/20 13:15:24;;;;;;;2.38;1.13;;;20.20;91.40;;;;;;5066097;28;20095;-71
2022/06/20 13:18:23;;;;;;;5.53;1.20;;;20.00;92.50;;;;;;5061942;28;20040;-72
2022/06/20 13:20:59;;;;;;;2.55;1.27;;;20.00;93.40;;;;;;5078804;28;20044;-71
2022/06/20 13:23:47;;;;;;;4.13;1.15;;;20.00;93.60;;;;;;5069626;28;20135;-70
2022/06/20 13:26:19;;;;;;;2.22;0.93;;;20.40;92.40;;;;;;5076840;28;20044;-71
2022/06/20 13:28:57;;;;;;;1.85;0.98;;;20.70;92.00;;;;;;5058781;28;20055;-70
2022/06/20 13:31:42;;;;;;;2.58;1.33;;;21.10;90.80;;;;;;5076912;28;20067;-71
2022/06/20 13:34:20;;;;;;;4.20;1.23;;;21.10;91.60;;;;;;5074012;28;20057;-71
2022/06/20 13:36:51;;;;;;;9.18;1.55;;;21.10;91.80;;;;;;5077036;28;20083;-71
2022/06/20 13:39:43;;;;;;;5.40;1.55;;;21.20;92.10;;;;;;5059135;28;20113;-71
2022/06/20 13:42:36;;;;;;;5.18;1.38;;;21.30;92.10;;;;;;5071919;28;20377;-71
2022/06/20 13:45:06;;;;;;;5.45;1.15;;;20.90;91.30;;;;;;5076070;28;20076;-72
2022/06/20 13:47:35;;;;;;;2.42;1.20;;;20.60;91.70;;;;;;5058769;28;20388;-72